Red Bird, Missouri
Current Conditions -  °F | °C
As of 6:53 PM on Saturday 25 Oct 2014 (Local Time) from KVIH Reporting Station
Clear Clear  
Wind Chill: 62°   Ceiling: Unl
Heat Index: 62°   Visibility: 10mi
Dew Point: 56°   Wind: 0mph
Humidity: 80%   Direction: NA
Pressure: 30.01"   Gusts: NA
Location:  38.3239°N, 91.6268°W
Report Text: KVIH 252353Z AUTO 00000KT 10SM CLR 17/13 A3001 RMK AO2 SLP159 T01670133 10267 20167 58001
Loading
Personal Weather Stations






























Interactive Weather Map
Tropical Storm Tracking
New forecast layout! Learn more

10-Day Weather Forecast

Advertisements
Track Severe Weather on mobile